sensor_id;sensor_type;location;lat;lon;timestamp;P1;durP1;ratioP1;P2;durP2;ratioP2
8831;SDS011;4452;50.756;4.472;2022-10-17T00:00:42;48.72;;;21.88;;
8831;SDS011;4452;50.756;4.472;2022-10-17T00:03:08;50.97;;;22.25;;
8831;SDS011;4452;50.756;4.472;2022-10-17T00:05:39;44.22;;;21.85;;
8831;SDS011;4452;50.756;4.472;2022-10-17T00:08:05;53.00;;;22.20;;
8831;SDS011;4452;50.756;4.472;2022-10-17T00:10:31;42.72;;;21.05;;
8831;SDS011;4452;50.756;4.472;2022-10-17T00:12:56;51.22;;;22.83;;
8831;SDS011;4452;50.756;4.472;2022-10-17T00:15:22;52.58;;;22.05;;
8831;SDS011;4452;50.756;4.472;2022-10-17T00:17:47;49.20;;;21.40;;
8831;SDS011;4452;50.756;4.472;2022-10-17T00:20:14;51.13;;;22.38;;
8831;SDS011;4452;50.756;4.472;2022-10-17T00:22:40;48.28;;;21.98;;
8831;SDS011;4452;50.756;4.472;2022-10-17T00:25:06;44.15;;;20.60;;
8831;SDS011;4452;50.756;4.472;2022-10-17T00:27:35;46.05;;;20.85;;
8831;SDS011;4452;50.756;4.472;2022-10-17T00:30:02;46.33;;;20.02;;
8831;SDS011;4452;50.756;4.472;2022-10-17T00:32:28;41.55;;;19.67;;
8831;SDS011;4452;50.756;4.472;2022-10-17T00:34:54;46.80;;;20.58;;
8831;SDS011;4452;50.756;4.472;2022-10-17T00:37:19;44.35;;;20.17;;
8831;SDS011;4452;50.756;4.472;2022-10-17T00:39:45;41.58;;;19.70;;
8831;SDS011;4452;50.756;4.472;2022-10-17T00:42:14;44.13;;;20.40;;
8831;SDS011;4452;50.756;4.472;2022-10-17T00:47:07;35.80;;;18.83;;
8831;SDS011;4452;50.756;4.472;2022-10-17T00:49:35;48.53;;;20.00;;
8831;SDS011;4452;50.756;4.472;2022-10-17T00:52:12;44.58;;;20.58;;
8831;SDS011;4452;50.756;4.472;2022-10-17T00:54:45;49.50;;;21.17;;
8831;SDS011;4452;50.756;4.472;2022-10-17T00:57:14;50.92;;;20.80;;
8831;SDS011;4452;50.756;4.472;2022-10-17T00:59:40;43.42;;;19.52;;
8831;SDS011;4452;50.756;4.472;2022-10-17T01:02:12;45.90;;;20.77;;
8831;SDS011;4452;50.756;4.472;2022-10-17T01:04:41;47.55;;;20.63;;
8831;SDS011;4452;50.756;4.472;2022-10-17T01:07:08;41.92;;;19.73;;
8831;SDS011;4452;50.756;4.472;2022-10-17T01:09:34;49.28;;;21.92;;
8831;SDS011;4452;50.756;4.472;2022-10-17T01:20:55;49.22;;;21.52;;
8831;SDS011;4452;50.756;4.472;2022-10-17T01:25:33;46.53;;;20.13;;
8831;SDS011;4452;50.756;4.472;2022-10-17T01:28:18;40.58;;;19.52;;
8831;SDS011;4452;50.756;4.472;2022-10-17T01:30:58;46.47;;;18.60;;
8831;SDS011;4452;50.756;4.472;2022-10-17T01:33:40;44.42;;;19.85;;
8831;SDS011;4452;50.756;4.472;2022-10-17T01:36:35;50.60;;;19.55;;
8831;SDS011;4452;50.756;4.472;2022-10-17T01:39:06;39.70;;;19.02;;
8831;SDS011;4452;50.756;4.472;2022-10-17T01:41:46;38.00;;;18.00;;
8831;SDS011;4452;50.756;4.472;2022-10-17T01:44:18;54.58;;;20.27;;
8831;SDS011;4452;50.756;4.472;2022-10-17T01:46:51;39.20;;;17.92;;
8831;SDS011;4452;50.756;4.472;2022-10-17T01:49:23;44.05;;;18.88;;
8831;SDS011;4452;50.756;4.472;2022-10-17T01:51:56;48.10;;;19.13;;
8831;SDS011;4452;50.756;4.472;2022-10-17T01:54:41;46.72;;;19.67;;
8831;SDS011;4452;50.756;4.472;2022-10-17T01:57:22;41.03;;;19.42;;
8831;SDS011;4452;50.756;4.472;2022-10-17T01:59:57;41.22;;;19.48;;
8831;SDS011;4452;50.756;4.472;2022-10-17T02:02:25;43.17;;;19.33;;
8831;SDS011;4452;50.756;4.472;2022-10-17T02:04:51;49.92;;;19.77;;
8831;SDS011;4452;50.756;4.472;2022-10-17T02:07:18;39.45;;;19.45;;
8831;SDS011;4452;50.756;4.472;2022-10-17T02:09:44;43.95;;;18.38;;
8831;SDS011;4452;50.756;4.472;2022-10-17T02:17:56;37.60;;;17.42;;
8831;SDS011;4452;50.756;4.472;2022-10-17T02:23:02;42.78;;;17.55;;
8831;SDS011;4452;50.756;4.472;2022-10-17T02:25:37;51.25;;;19.63;;
8831;SDS011;4452;50.756;4.472;2022-10-17T02:28:22;38.90;;;17.77;;
8831;SDS011;4452;50.756;4.472;2022-10-17T02:35:53;43.92;;;18.08;;
8831;SDS011;4452;50.756;4.472;2022-10-17T02:38:23;40.97;;;18.63;;
8831;SDS011;4452;50.756;4.472;2022-10-17T02:40:51;46.17;;;19.02;;
8831;SDS011;4452;50.756;4.472;2022-10-17T02:43:18;42.97;;;19.08;;
8831;SDS011;4452;50.756;4.472;2022-10-17T02:45:44;43.67;;;19.52;;
8831;SDS011;4452;50.756;4.472;2022-10-17T02:48:13;38.17;;;17.65;;
8831;SDS011;4452;50.756;4.472;2022-10-17T02:56:21;40.45;;;19.20;;
8831;SDS011;4452;50.756;4.472;2022-10-17T02:58:51;47.15;;;20.13;;
8831;SDS011;4452;50.756;4.472;2022-10-17T03:01:20;48.20;;;20.75;;
8831;SDS011;4452;50.756;4.472;2022-10-17T03:03:46;44.58;;;19.85;;
8831;SDS011;4452;50.756;4.472;2022-10-17T03:06:11;47.15;;;19.45;;
8831;SDS011;4452;50.756;4.472;2022-10-17T03:08:37;45.50;;;19.58;;
8831;SDS011;4452;50.756;4.472;2022-10-17T03:11:03;36.80;;;18.00;;
8831;SDS011;4452;50.756;4.472;2022-10-17T03:13:28;36.17;;;18.00;;
8831;SDS011;4452;50.756;4.472;2022-10-17T03:15:55;42.05;;;19.50;;
8831;SDS011;4452;50.756;4.472;2022-10-17T03:18:21;33.45;;;18.73;;
8831;SDS011;4452;50.756;4.472;2022-10-17T03:20:46;40.85;;;18.60;;
8831;SDS011;4452;50.756;4.472;2022-10-17T03:23:12;32.55;;;17.45;;
8831;SDS011;4452;50.756;4.472;2022-10-17T03:25:38;37.53;;;17.65;;
8831;SDS011;4452;50.756;4.472;2022-10-17T03:28:03;35.22;;;17.10;;
8831;SDS011;4452;50.756;4.472;2022-10-17T03:30:29;46.38;;;18.55;;
8831;SDS011;4452;50.756;4.472;2022-10-17T03:32:59;45.38;;;18.80;;
8831;SDS011;4452;50.756;4.472;2022-10-17T03:35:25;38.50;;;18.17;;
8831;SDS011;4452;50.756;4.472;2022-10-17T03:37:51;40.70;;;18.33;;
8831;SDS011;4452;50.756;4.472;2022-10-17T03:40:18;35.35;;;17.65;;
8831;SDS011;4452;50.756;4.472;2022-10-17T03:42:44;38.17;;;17.95;;
8831;SDS011;4452;50.756;4.472;2022-10-17T03:45:10;38.53;;;17.70;;
8831;SDS011;4452;50.756;4.472;2022-10-17T03:47:35;39.90;;;18.73;;
8831;SDS011;4452;50.756;4.472;2022-10-17T03:50:01;33.28;;;16.98;;
8831;SDS011;4452;50.756;4.472;2022-10-17T03:52:27;39.72;;;17.95;;
8831;SDS011;4452;50.756;4.472;2022-10-17T03:54:52;38.58;;;18.00;;
8831;SDS011;4452;50.756;4.472;2022-10-17T03:57:18;41.47;;;16.05;;
8831;SDS011;4452;50.756;4.472;2022-10-17T03:59:43;39.83;;;18.05;;
8831;SDS011;4452;50.756;4.472;2022-10-17T04:02:09;41.80;;;17.17;;
8831;SDS011;4452;50.756;4.472;2022-10-17T04:04:34;35.78;;;18.13;;
8831;SDS011;4452;50.756;4.472;2022-10-17T04:07:00;32.08;;;16.90;;
8831;SDS011;4452;50.756;4.472;2022-10-17T04:09:26;34.65;;;17.67;;
8831;SDS011;4452;50.756;4.472;2022-10-17T04:11:51;34.33;;;17.48;;
8831;SDS011;4452;50.756;4.472;2022-10-17T04:14:17;36.08;;;17.48;;
8831;SDS011;4452;50.756;4.472;2022-10-17T04:16:42;39.20;;;17.23;;
8831;SDS011;4452;50.756;4.472;2022-10-17T04:19:09;37.13;;;17.25;;
8831;SDS011;4452;50.756;4.472;2022-10-17T04:21:36;37.85;;;17.90;;
8831;SDS011;4452;50.756;4.472;2022-10-17T04:24:02;41.83;;;17.20;;
8831;SDS011;4452;50.756;4.472;2022-10-17T04:26:28;38.97;;;17.48;;
8831;SDS011;4452;50.756;4.472;2022-10-17T04:28:54;38.25;;;16.95;;
8831;SDS011;4452;50.756;4.472;2022-10-17T04:31:19;37.55;;;16.63;;
8831;SDS011;4452;50.756;4.472;2022-10-17T04:33:46;43.53;;;18.10;;
8831;SDS011;4452;50.756;4.472;2022-10-17T04:36:13;33.53;;;16.92;;
8831;SDS011;4452;50.756;4.472;2022-10-17T04:38:43;37.20;;;17.30;;
8831;SDS011;4452;50.756;4.472;2022-10-17T04:41:10;36.95;;;17.80;;
8831;SDS011;4452;50.756;4.472;2022-10-17T04:43:37;38.38;;;17.70;;
8831;SDS011;4452;50.756;4.472;2022-10-17T04:46:13;35.63;;;16.98;;
8831;SDS011;4452;50.756;4.472;2022-10-17T04:48:39;38.28;;;17.20;;
8831;SDS011;4452;50.756;4.472;2022-10-17T04:51:10;33.05;;;16.08;;
8831;SDS011;4452;50.756;4.472;2022-10-17T04:53:38;47.22;;;18.45;;
8831;SDS011;4452;50.756;4.472;2022-10-17T04:56:08;44.28;;;17.30;;
8831;SDS011;4452;50.756;4.472;2022-10-17T04:58:36;35.70;;;18.17;;
8831;SDS011;4452;50.756;4.472;2022-10-17T05:01:06;38.33;;;16.65;;
8831;SDS011;4452;50.756;4.472;2022-10-17T05:03:33;38.40;;;17.88;;
8831;SDS011;4452;50.756;4.472;2022-10-17T05:06:06;34.50;;;16.08;;
8831;SDS011;4452;50.756;4.472;2022-10-17T05:08:33;32.33;;;16.27;;
8831;SDS011;4452;50.756;4.472;2022-10-17T05:10:59;31.50;;;16.40;;
8831;SDS011;4452;50.756;4.472;2022-10-17T05:13:25;31.08;;;16.60;;
8831;SDS011;4452;50.756;4.472;2022-10-17T05:15:50;26.95;;;16.25;;
8831;SDS011;4452;50.756;4.472;2022-10-17T05:18:16;33.90;;;16.17;;
8831;SDS011;4452;50.756;4.472;2022-10-17T05:20:42;29.25;;;15.43;;
8831;SDS011;4452;50.756;4.472;2022-10-17T05:23:07;31.67;;;15.77;;
8831;SDS011;4452;50.756;4.472;2022-10-17T05:25:33;30.92;;;16.55;;
8831;SDS011;4452;50.756;4.472;2022-10-17T05:27:58;28.05;;;15.35;;
8831;SDS011;4452;50.756;4.472;2022-10-17T05:30:24;32.08;;;15.25;;
8831;SDS011;4452;50.756;4.472;2022-10-17T05:32:53;28.58;;;14.85;;
8831;SDS011;4452;50.756;4.472;2022-10-17T05:35:20;29.55;;;15.27;;
8831;SDS011;4452;50.756;4.472;2022-10-17T05:37:46;31.10;;;15.38;;
8831;SDS011;4452;50.756;4.472;2022-10-17T05:40:11;29.42;;;14.90;;
8831;SDS011;4452;50.756;4.472;2022-10-17T05:42:37;30.40;;;15.02;;
8831;SDS011;4452;50.756;4.472;2022-10-17T05:45:03;26.27;;;14.35;;
8831;SDS011;4452;50.756;4.472;2022-10-17T05:47:29;26.77;;;14.55;;
8831;SDS011;4452;50.756;4.472;2022-10-17T05:49:55;25.08;;;14.20;;
8831;SDS011;4452;50.756;4.472;2022-10-17T05:52:21;34.50;;;16.05;;
8831;SDS011;4452;50.756;4.472;2022-10-17T05:54:47;24.45;;;14.35;;
8831;SDS011;4452;50.756;4.472;2022-10-17T05:57:12;24.95;;;14.63;;
8831;SDS011;4452;50.756;4.472;2022-10-17T05:59:38;26.33;;;13.30;;
8831;SDS011;4452;50.756;4.472;2022-10-17T06:02:03;24.00;;;13.40;;
8831;SDS011;4452;50.756;4.472;2022-10-17T06:04:29;24.80;;;12.88;;
8831;SDS011;4452;50.756;4.472;2022-10-17T06:06:55;30.65;;;12.50;;
8831;SDS011;4452;50.756;4.472;2022-10-17T06:09:21;23.90;;;13.00;;
8831;SDS011;4452;50.756;4.472;2022-10-17T06:11:47;26.15;;;12.63;;
8831;SDS011;4452;50.756;4.472;2022-10-17T06:14:12;23.67;;;12.65;;
8831;SDS011;4452;50.756;4.472;2022-10-17T06:16:38;25.15;;;12.23;;
8831;SDS011;4452;50.756;4.472;2022-10-17T06:19:04;30.95;;;12.93;;
8831;SDS011;4452;50.756;4.472;2022-10-17T06:21:29;23.25;;;12.68;;
8831;SDS011;4452;50.756;4.472;2022-10-17T06:23:58;22.00;;;12.30;;
8831;SDS011;4452;50.756;4.472;2022-10-17T06:26:24;22.48;;;11.85;;
8831;SDS011;4452;50.756;4.472;2022-10-17T06:28:49;15.85;;;11.00;;
8831;SDS011;4452;50.756;4.472;2022-10-17T06:31:16;21.17;;;12.73;;
8831;SDS011;4452;50.756;4.472;2022-10-17T06:33:41;16.95;;;9.63;;
8831;SDS011;4452;50.756;4.472;2022-10-17T06:36:09;15.77;;;9.20;;
8831;SDS011;4452;50.756;4.472;2022-10-17T06:38:36;12.93;;;8.43;;
8831;SDS011;4452;50.756;4.472;2022-10-17T06:41:06;10.90;;;7.55;;
8831;SDS011;4452;50.756;4.472;2022-10-17T06:43:39;20.80;;;8.63;;
8831;SDS011;4452;50.756;4.472;2022-10-17T06:46:11;16.37;;;8.13;;
8831;SDS011;4452;50.756;4.472;2022-10-17T06:48:38;14.50;;;7.47;;
8831;SDS011;4452;50.756;4.472;2022-10-17T06:51:04;11.00;;;7.00;;
8831;SDS011;4452;50.756;4.472;2022-10-17T06:53:31;9.25;;;5.05;;
8831;SDS011;4452;50.756;4.472;2022-10-17T06:55:59;14.18;;;6.93;;
8831;SDS011;4452;50.756;4.472;2022-10-17T06:58:32;10.85;;;6.50;;
8831;SDS011;4452;50.756;4.472;2022-10-17T07:01:04;9.95;;;6.28;;
8831;SDS011;4452;50.756;4.472;2022-10-17T07:03:34;11.43;;;7.13;;
8831;SDS011;4452;50.756;4.472;2022-10-17T07:06:01;8.05;;;5.85;;
8831;SDS011;4452;50.756;4.472;2022-10-17T07:08:30;16.80;;;6.63;;
8831;SDS011;4452;50.756;4.472;2022-10-17T07:10:59;12.07;;;6.70;;
8831;SDS011;4452;50.756;4.472;2022-10-17T07:13:36;9.63;;;5.90;;
8831;SDS011;4452;50.756;4.472;2022-10-17T07:16:01;12.80;;;6.15;;
8831;SDS011;4452;50.756;4.472;2022-10-17T07:18:27;16.67;;;6.53;;
8831;SDS011;4452;50.756;4.472;2022-10-17T07:20:53;10.80;;;6.60;;
8831;SDS011;4452;50.756;4.472;2022-10-17T07:23:19;13.02;;;6.38;;
8831;SDS011;4452;50.756;4.472;2022-10-17T07:25:45;11.57;;;6.32;;
8831;SDS011;4452;50.756;4.472;2022-10-17T07:28:12;13.10;;;6.10;;
8831;SDS011;4452;50.756;4.472;2022-10-17T07:30:39;10.45;;;6.28;;
8831;SDS011;4452;50.756;4.472;2022-10-17T07:33:05;11.70;;;6.47;;
8831;SDS011;4452;50.756;4.472;2022-10-17T07:35:30;12.05;;;6.70;;
8831;SDS011;4452;50.756;4.472;2022-10-17T07:37:56;15.90;;;7.00;;
8831;SDS011;4452;50.756;4.472;2022-10-17T07:40:22;10.93;;;6.45;;
8831;SDS011;4452;50.756;4.472;2022-10-17T07:42:47;10.52;;;6.35;;
8831;SDS011;4452;50.756;4.472;2022-10-17T07:45:13;12.52;;;6.40;;
8831;SDS011;4452;50.756;4.472;2022-10-17T07:47:39;10.23;;;6.38;;
8831;SDS011;4452;50.756;4.472;2022-10-17T07:50:05;14.80;;;6.35;;
8831;SDS011;4452;50.756;4.472;2022-10-17T07:52:31;18.23;;;6.15;;
8831;SDS011;4452;50.756;4.472;2022-10-17T07:54:57;14.35;;;7.10;;
8831;SDS011;4452;50.756;4.472;2022-10-17T07:57:23;12.63;;;6.80;;
8831;SDS011;4452;50.756;4.472;2022-10-17T07:59:48;14.20;;;6.80;;
8831;SDS011;4452;50.756;4.472;2022-10-17T08:02:20;12.95;;;6.10;;
8831;SDS011;4452;50.756;4.472;2022-10-17T08:04:47;10.90;;;6.65;;
8831;SDS011;4452;50.756;4.472;2022-10-17T08:07:13;12.57;;;6.80;;
8831;SDS011;4452;50.756;4.472;2022-10-17T08:09:40;13.40;;;6.70;;
8831;SDS011;4452;50.756;4.472;2022-10-17T08:12:06;16.20;;;7.13;;
8831;SDS011;4452;50.756;4.472;2022-10-17T08:14:32;10.52;;;6.82;;
8831;SDS011;4452;50.756;4.472;2022-10-17T08:16:57;15.25;;;6.72;;
8831;SDS011;4452;50.756;4.472;2022-10-17T08:19:23;17.48;;;6.40;;
8831;SDS011;4452;50.756;4.472;2022-10-17T08:21:49;10.73;;;6.15;;
8831;SDS011;4452;50.756;4.472;2022-10-17T08:24:15;12.02;;;6.05;;
8831;SDS011;4452;50.756;4.472;2022-10-17T08:26:41;18.02;;;7.45;;
8831;SDS011;4452;50.756;4.472;2022-10-17T08:29:11;14.65;;;9.43;;
8831;SDS011;4452;50.756;4.472;2022-10-17T08:31:38;19.27;;;10.32;;
8831;SDS011;4452;50.756;4.472;2022-10-17T08:34:03;21.05;;;9.68;;
8831;SDS011;4452;50.756;4.472;2022-10-17T08:36:29;24.95;;;9.52;;
8831;SDS011;4452;50.756;4.472;2022-10-17T08:38:54;19.48;;;9.05;;
8831;SDS011;4452;50.756;4.472;2022-10-17T08:44:16;20.73;;;10.80;;
8831;SDS011;4452;50.756;4.472;2022-10-17T08:46:57;18.90;;;10.25;;
8831;SDS011;4452;50.756;4.472;2022-10-17T08:53:02;16.67;;;11.05;;
8831;SDS011;4452;50.756;4.472;2022-10-17T08:55:21;24.67;;;11.68;;
8831;SDS011;4452;50.756;4.472;2022-10-17T08:57:51;30.15;;;11.98;;
8831;SDS011;4452;50.756;4.472;2022-10-17T09:00:18;19.65;;;13.05;;
8831;SDS011;4452;50.756;4.472;2022-10-17T09:05:35;28.42;;;12.95;;
8831;SDS011;4452;50.756;4.472;2022-10-17T09:11:42;26.83;;;14.65;;
8831;SDS011;4452;50.756;4.472;2022-10-17T09:19:50;35.20;;;15.48;;
8831;SDS011;4452;50.756;4.472;2022-10-17T09:22:20;40.90;;;16.13;;
8831;SDS011;4452;50.756;4.472;2022-10-17T09:27:26;31.25;;;16.80;;
8831;SDS011;4452;50.756;4.472;2022-10-17T09:30:18;33.50;;;16.98;;
8831;SDS011;4452;50.756;4.472;2022-10-17T09:32:58;30.80;;;15.45;;
8831;SDS011;4452;50.756;4.472;2022-10-17T09:35:24;29.17;;;15.10;;
8831;SDS011;4452;50.756;4.472;2022-10-17T09:37:52;35.38;;;16.08;;
8831;SDS011;4452;50.756;4.472;2022-10-17T09:40:20;28.02;;;15.95;;
8831;SDS011;4452;50.756;4.472;2022-10-17T09:42:56;32.22;;;13.65;;
8831;SDS011;4452;50.756;4.472;2022-10-17T09:45:23;26.80;;;14.32;;
8831;SDS011;4452;50.756;4.472;2022-10-17T09:48:04;30.50;;;15.02;;
8831;SDS011;4452;50.756;4.472;2022-10-17T09:50:37;22.77;;;13.20;;
8831;SDS011;4452;50.756;4.472;2022-10-17T09:53:38;25.85;;;12.90;;
8831;SDS011;4452;50.756;4.472;2022-10-17T09:56:01;17.73;;;11.15;;
8831;SDS011;4452;50.756;4.472;2022-10-17T09:58:45;21.95;;;11.32;;
8831;SDS011;4452;50.756;4.472;2022-10-17T10:01:17;21.58;;;11.93;;
8831;SDS011;4452;50.756;4.472;2022-10-17T10:06:35;16.95;;;11.23;;
8831;SDS011;4452;50.756;4.472;2022-10-17T10:09:02;21.67;;;11.55;;
8831;SDS011;4452;50.756;4.472;2022-10-17T10:11:46;18.40;;;11.10;;
8831;SDS011;4452;50.756;4.472;2022-10-17T10:14:30;20.83;;;11.05;;
8831;SDS011;4452;50.756;4.472;2022-10-17T10:16:59;17.08;;;8.77;;
8831;SDS011;4452;50.756;4.472;2022-10-17T10:19:36;13.93;;;9.60;;
8831;SDS011;4452;50.756;4.472;2022-10-17T10:24:39;16.92;;;9.43;;
8831;SDS011;4452;50.756;4.472;2022-10-17T10:27:05;23.98;;;9.88;;
8831;SDS011;4452;50.756;4.472;2022-10-17T10:29:40;18.75;;;8.77;;
8831;SDS011;4452;50.756;4.472;2022-10-17T10:32:24;13.68;;;7.72;;
8831;SDS011;4452;50.756;4.472;2022-10-17T10:37:43;12.10;;;7.13;;
8831;SDS011;4452;50.756;4.472;2022-10-17T10:42:49;12.63;;;7.00;;
8831;SDS011;4452;50.756;4.472;2022-10-17T10:45:17;22.77;;;7.30;;
8831;SDS011;4452;50.756;4.472;2022-10-17T10:47:52;12.82;;;6.95;;
8831;SDS011;4452;50.756;4.472;2022-10-17T10:55:43;11.30;;;6.38;;
8831;SDS011;4452;50.756;4.472;2022-10-17T10:58:28;14.88;;;5.97;;
8831;SDS011;4452;50.756;4.472;2022-10-17T11:01:08;12.68;;;5.55;;
8831;SDS011;4452;50.756;4.472;2022-10-17T11:03:52;13.55;;;6.35;;
8831;SDS011;4452;50.756;4.472;2022-10-17T11:06:27;9.68;;;6.05;;
8831;SDS011;4452;50.756;4.472;2022-10-17T11:09:10;10.75;;;5.72;;
8831;SDS011;4452;50.756;4.472;2022-10-17T11:11:53;5.28;;;4.63;;
8831;SDS011;4452;50.756;4.472;2022-10-17T11:14:42;16.55;;;6.60;;
8831;SDS011;4452;50.756;4.472;2022-10-17T11:22:35;15.70;;;6.50;;
8831;SDS011;4452;50.756;4.472;2022-10-17T11:27:52;10.95;;;6.00;;
8831;SDS011;4452;50.756;4.472;2022-10-17T11:30:18;14.05;;;5.40;;
8831;SDS011;4452;50.756;4.472;2022-10-17T11:32:46;11.80;;;5.70;;
8831;SDS011;4452;50.756;4.472;2022-10-17T11:35:20;10.80;;;5.60;;
8831;SDS011;4452;50.756;4.472;2022-10-17T11:37:52;11.95;;;6.10;;
8831;SDS011;4452;50.756;4.472;2022-10-17T11:40:35;10.32;;;6.10;;
8831;SDS011;4452;50.756;4.472;2022-10-17T11:43:19;7.85;;;5.47;;
8831;SDS011;4452;50.756;4.472;2022-10-17T11:48:53;6.38;;;4.90;;
8831;SDS011;4452;50.756;4.472;2022-10-17T11:51:28;9.43;;;6.03;;
8831;SDS011;4452;50.756;4.472;2022-10-17T11:54:04;12.98;;;6.15;;
8831;SDS011;4452;50.756;4.472;2022-10-17T12:01:51;10.35;;;6.38;;
8831;SDS011;4452;50.756;4.472;2022-10-17T12:07:21;15.20;;;6.45;;
8831;SDS011;4452;50.756;4.472;2022-10-17T12:10:03;29.00;;;7.35;;
8831;SDS011;4452;50.756;4.472;2022-10-17T12:12:33;14.50;;;6.55;;
8831;SDS011;4452;50.756;4.472;2022-10-17T12:20:33;18.05;;;7.50;;
8831;SDS011;4452;50.756;4.472;2022-10-17T12:25:37;12.27;;;7.13;;
8831;SDS011;4452;50.756;4.472;2022-10-17T12:33:54;15.10;;;7.38;;
8831;SDS011;4452;50.756;4.472;2022-10-17T12:39:39;25.17;;;8.20;;
8831;SDS011;4452;50.756;4.472;2022-10-17T12:44:34;9.55;;;6.63;;
8831;SDS011;4452;50.756;4.472;2022-10-17T12:49:48;13.20;;;8.18;;
8831;SDS011;4452;50.756;4.472;2022-10-17T12:52:24;10.57;;;7.35;;
8831;SDS011;4452;50.756;4.472;2022-10-17T12:55:05;18.83;;;8.73;;
8831;SDS011;4452;50.756;4.472;2022-10-17T12:57:40;14.13;;;8.35;;
8831;SDS011;4452;50.756;4.472;2022-10-17T13:03:11;14.00;;;7.82;;
8831;SDS011;4452;50.756;4.472;2022-10-17T13:05:54;13.18;;;8.13;;
8831;SDS011;4452;50.756;4.472;2022-10-17T13:08:23;13.10;;;7.68;;
8831;SDS011;4452;50.756;4.472;2022-10-17T13:10:52;16.08;;;8.65;;
8831;SDS011;4452;50.756;4.472;2022-10-17T13:13:27;10.63;;;7.75;;
8831;SDS011;4452;50.756;4.472;2022-10-17T13:15:58;20.58;;;7.68;;
8831;SDS011;4452;50.756;4.472;2022-10-17T13:18:25;11.10;;;5.70;;
8831;SDS011;4452;50.756;4.472;2022-10-17T13:21:11;14.43;;;7.35;;
8831;SDS011;4452;50.756;4.472;2022-10-17T13:23:39;16.33;;;7.57;;
8831;SDS011;4452;50.756;4.472;2022-10-17T13:28:30;18.45;;;7.72;;
8831;SDS011;4452;50.756;4.472;2022-10-17T13:30:56;14.35;;;8.02;;
8831;SDS011;4452;50.756;4.472;2022-10-17T13:33:30;15.85;;;7.65;;
8831;SDS011;4452;50.756;4.472;2022-10-17T13:36:03;11.80;;;7.03;;
8831;SDS011;4452;50.756;4.472;2022-10-17T13:38:32;17.30;;;7.68;;
8831;SDS011;4452;50.756;4.472;2022-10-17T13:40:59;11.48;;;6.88;;
8831;SDS011;4452;50.756;4.472;2022-10-17T13:43:26;17.60;;;7.82;;
8831;SDS011;4452;50.756;4.472;2022-10-17T13:45:54;11.13;;;6.75;;
8831;SDS011;4452;50.756;4.472;2022-10-17T13:48:26;13.77;;;5.97;;
8831;SDS011;4452;50.756;4.472;2022-10-17T13:50:59;7.85;;;5.40;;
8831;SDS011;4452;50.756;4.472;2022-10-17T13:53:33;15.05;;;5.80;;
8831;SDS011;4452;50.756;4.472;2022-10-17T13:58:47;12.30;;;5.80;;
8831;SDS011;4452;50.756;4.472;2022-10-17T14:01:14;12.27;;;5.88;;
8831;SDS011;4452;50.756;4.472;2022-10-17T14:03:41;9.38;;;5.10;;
8831;SDS011;4452;50.756;4.472;2022-10-17T14:08:36;12.60;;;4.45;;
8831;SDS011;4452;50.756;4.472;2022-10-17T14:11:12;7.13;;;4.43;;
8831;SDS011;4452;50.756;4.472;2022-10-17T14:13:49;8.32;;;4.03;;
8831;SDS011;4452;50.756;4.472;2022-10-17T14:16:17;5.65;;;3.70;;
8831;SDS011;4452;50.756;4.472;2022-10-17T14:18:44;4.10;;;3.70;;
8831;SDS011;4452;50.756;4.472;2022-10-17T14:21:23;7.47;;;4.15;;
8831;SDS011;4452;50.756;4.472;2022-10-17T14:26:53;9.60;;;4.50;;
8831;SDS011;4452;50.756;4.472;2022-10-17T14:29:29;7.63;;;4.18;;
8831;SDS011;4452;50.756;4.472;2022-10-17T14:32:05;7.75;;;4.57;;
8831;SDS011;4452;50.756;4.472;2022-10-17T14:34:38;10.35;;;4.30;;
8831;SDS011;4452;50.756;4.472;2022-10-17T14:37:47;11.05;;;5.45;;
8831;SDS011;4452;50.756;4.472;2022-10-17T14:40:02;13.00;;;5.00;;
8831;SDS011;4452;50.756;4.472;2022-10-17T14:42:29;10.07;;;5.72;;
8831;SDS011;4452;50.756;4.472;2022-10-17T14:44:57;6.25;;;5.05;;
8831;SDS011;4452;50.756;4.472;2022-10-17T14:47:30;8.13;;;5.03;;
8831;SDS011;4452;50.756;4.472;2022-10-17T14:50:07;12.35;;;5.32;;
8831;SDS011;4452;50.756;4.472;2022-10-17T14:55:25;5.68;;;5.07;;
8831;SDS011;4452;50.756;4.472;2022-10-17T14:57:52;7.15;;;4.60;;
8831;SDS011;4452;50.756;4.472;2022-10-17T15:00:19;11.50;;;5.85;;
8831;SDS011;4452;50.756;4.472;2022-10-17T15:02:46;9.68;;;4.78;;
8831;SDS011;4452;50.756;4.472;2022-10-17T15:05:13;9.55;;;4.45;;
8831;SDS011;4452;50.756;4.472;2022-10-17T15:07:40;9.32;;;4.75;;
8831;SDS011;4452;50.756;4.472;2022-10-17T15:10:08;7.03;;;4.97;;
8831;SDS011;4452;50.756;4.472;2022-10-17T15:12:51;9.50;;;4.70;;
8831;SDS011;4452;50.756;4.472;2022-10-17T15:15:16;8.75;;;4.97;;
8831;SDS011;4452;50.756;4.472;2022-10-17T15:17:42;11.63;;;5.25;;
8831;SDS011;4452;50.756;4.472;2022-10-17T15:20:11;9.82;;;5.07;;
8831;SDS011;4452;50.756;4.472;2022-10-17T15:22:40;9.87;;;4.73;;
8831;SDS011;4452;50.756;4.472;2022-10-17T15:25:05;13.88;;;4.78;;
8831;SDS011;4452;50.756;4.472;2022-10-17T15:27:31;7.97;;;4.95;;
8831;SDS011;4452;50.756;4.472;2022-10-17T15:29:57;7.35;;;4.47;;
8831;SDS011;4452;50.756;4.472;2022-10-17T15:32:22;9.30;;;4.68;;
8831;SDS011;4452;50.756;4.472;2022-10-17T15:34:48;10.02;;;4.70;;
8831;SDS011;4452;50.756;4.472;2022-10-17T15:37:23;4.85;;;4.35;;
8831;SDS011;4452;50.756;4.472;2022-10-17T15:39:51;11.95;;;4.95;;
8831;SDS011;4452;50.756;4.472;2022-10-17T15:42:18;12.00;;;4.90;;
8831;SDS011;4452;50.756;4.472;2022-10-17T15:47:30;12.15;;;6.80;;
8831;SDS011;4452;50.756;4.472;2022-10-17T15:49:59;9.77;;;5.82;;
8831;SDS011;4452;50.756;4.472;2022-10-17T15:52:26;12.02;;;5.55;;
8831;SDS011;4452;50.756;4.472;2022-10-17T15:54:52;8.43;;;5.90;;
8831;SDS011;4452;50.756;4.472;2022-10-17T15:57:22;7.95;;;5.30;;
8831;SDS011;4452;50.756;4.472;2022-10-17T15:59:51;10.48;;;5.63;;
8831;SDS011;4452;50.756;4.472;2022-10-17T16:02:18;8.52;;;6.10;;
8831;SDS011;4452;50.756;4.472;2022-10-17T16:04:45;12.27;;;5.88;;
8831;SDS011;4452;50.756;4.472;2022-10-17T16:07:12;11.20;;;6.47;;
8831;SDS011;4452;50.756;4.472;2022-10-17T16:09:38;14.88;;;6.22;;
8831;SDS011;4452;50.756;4.472;2022-10-17T16:12:04;15.00;;;7.35;;
8831;SDS011;4452;50.756;4.472;2022-10-17T16:14:34;13.50;;;7.13;;
8831;SDS011;4452;50.756;4.472;2022-10-17T16:17:00;13.20;;;7.10;;
8831;SDS011;4452;50.756;4.472;2022-10-17T16:19:26;17.30;;;7.72;;
8831;SDS011;4452;50.756;4.472;2022-10-17T16:21:54;13.57;;;7.90;;
8831;SDS011;4452;50.756;4.472;2022-10-17T16:24:21;14.40;;;7.10;;
8831;SDS011;4452;50.756;4.472;2022-10-17T16:26:47;13.57;;;7.75;;
8831;SDS011;4452;50.756;4.472;2022-10-17T16:29:13;20.10;;;8.55;;
8831;SDS011;4452;50.756;4.472;2022-10-17T16:31:39;13.13;;;8.48;;
8831;SDS011;4452;50.756;4.472;2022-10-17T16:34:07;17.73;;;9.32;;
8831;SDS011;4452;50.756;4.472;2022-10-17T16:36:34;15.75;;;9.32;;
8831;SDS011;4452;50.756;4.472;2022-10-17T16:39:00;17.70;;;10.10;;
8831;SDS011;4452;50.756;4.472;2022-10-17T16:41:28;16.42;;;11.50;;
8831;SDS011;4452;50.756;4.472;2022-10-17T16:43:57;17.25;;;10.57;;
8831;SDS011;4452;50.756;4.472;2022-10-17T16:46:24;26.70;;;10.88;;
8831;SDS011;4452;50.756;4.472;2022-10-17T16:48:51;17.90;;;11.20;;
8831;SDS011;4452;50.756;4.472;2022-10-17T16:51:17;21.67;;;9.98;;
8831;SDS011;4452;50.756;4.472;2022-10-17T16:53:44;15.02;;;9.88;;
8831;SDS011;4452;50.756;4.472;2022-10-17T16:56:12;13.88;;;9.10;;
8831;SDS011;4452;50.756;4.472;2022-10-17T16:58:39;17.83;;;8.80;;
8831;SDS011;4452;50.756;4.472;2022-10-17T17:01:07;14.05;;;8.30;;
8831;SDS011;4452;50.756;4.472;2022-10-17T17:03:38;13.88;;;7.35;;
8831;SDS011;4452;50.756;4.472;2022-10-17T17:06:06;8.93;;;6.03;;
8831;SDS011;4452;50.756;4.472;2022-10-17T17:08:33;8.98;;;6.05;;
8831;SDS011;4452;50.756;4.472;2022-10-17T17:11:01;14.32;;;6.70;;
8831;SDS011;4452;50.756;4.472;2022-10-17T17:13:29;9.95;;;6.47;;
8831;SDS011;4452;50.756;4.472;2022-10-17T17:16:02;22.33;;;8.45;;
8831;SDS011;4452;50.756;4.472;2022-10-17T17:18:36;12.68;;;8.23;;